Terminal Aerodrome Forecast
Issued by NWS Melbourne, FL

Home | Current Version | Previous Version | Text Only | Print | Product List | Glossary On
Versions: 1 2 3 4 5 6 7 8 9 10 11 12 13 14 15 16 17 18 19 20 21 22 23 24 25 26 27 28
000
FTUS42 KMLB 030532
TAFMCO
TAF
KMCO 030532Z 0306/0406 15006KT P6SM FEW015 SCT050 BKN090
     FM030900 17004KT P6SM FEW020 BKN120 BKN250
      TEMPO 0309/0312 5SM BR BKN020
     FM031500 23010KT P6SM SCT025
     FM031800 24009KT P6SM VCTS BKN035CB=

USA.gov is the U.S. government's official web portal to all federal, state and local government web resources and services.